עמוד ראשי
METAR-TAF:

METAR-TAF

שדות תעופה :

Chevak, אלסקה, ארצות הברית

קו רוחב: 61-32-27N, קו אורך: 165-36-03W, גובה: 23מטר

תצפית מזג אוויר נוכחית

הדו"ח נערך לפני 1 שעות ו 16דקות, בשעה 11:56 UTC
רוח 6קשר מכיוון דרום-מערב
טמפרטורת 10 צלסיוס
לחות 93%
לחץ 1015 hPa
ראות: 16.1קילומטר
מעונן בגובה 700רגל

METAR: PAVA 251156Z AUTO 22006KT 10SM OVC007 10/09 A2998 RMK AO2 SLP157 6//// 7//// T01000094 10122 20100 58005 PNO $

זמן: 05:12 (13:12 UTC)


TAF: חסר

תצפיות ותחזיות מזג אוויר לגבי יותר מ- 4,000 שדות תעופה ברחבי העולם. דוחות METAR ו- TAF.

התחנות הזמינות מסומנות בנקודות צהובות ואדומות על גבי המפה.

העבר את העכבר לנקודה הצבעונית על מנת לראות את שם התחנה.

לאחר מכן, לחץ כדי לראות את תוכן ואת תחזיות מזג האוויר.

כדי לשנות את המפה: לחץ על הכפתורים הירוקים עם הפלוס השחור כדי להתקרב; על הכפתור הירוק עם המקף כדי להתרחק; או בחיצים הירוקים למפות סמוכות.


METAR-TAF: